createdAt,value
2023-05-14T00:00:48.229Z,64.06
2023-05-14T00:03:21.048Z,63.83
2023-05-14T00:05:50.977Z,63.75
2023-05-14T00:08:21.785Z,63.75
2023-05-14T00:10:53.654Z,63.99
2023-05-14T00:13:25.065Z,64.01
2023-05-14T00:15:56.831Z,64.03
2023-05-14T00:18:29.646Z,64.08
2023-05-14T00:21:37.943Z,64.52
2023-05-14T00:24:21.556Z,64.80
2023-05-14T00:26:57.910Z,64.83
2023-05-14T00:29:29.682Z,65.18
2023-05-14T00:32:05.798Z,65.16
2023-05-14T00:34:48.107Z,65.02
2023-05-14T00:37:23.547Z,65.09
2023-05-14T00:39:53.836Z,65.06
2023-05-14T00:42:24.209Z,64.98
2023-05-14T00:44:54.611Z,65.18
2023-05-14T00:47:25.095Z,65.10
2023-05-14T00:49:55.796Z,65.20
2023-05-14T00:52:26.214Z,65.28
2023-05-14T00:54:57.943Z,65.39
2023-05-14T00:57:28.329Z,65.55
2023-05-14T00:59:58.739Z,65.64
2023-05-14T01:02:29.110Z,65.86
2023-05-14T01:04:59.744Z,65.97
2023-05-14T01:07:33.986Z,66.15
2023-05-14T01:10:07.344Z,66.27
2023-05-14T01:12:41.617Z,66.28
2023-05-14T01:15:13.744Z,66.45
2023-05-14T01:17:46.502Z,66.53
2023-05-14T01:20:17.104Z,66.70
2023-05-14T01:22:47.457Z,66.74
2023-05-14T01:25:17.742Z,66.88
2023-05-14T01:27:54.112Z,66.81
2023-05-14T01:30:28.771Z,67.00
2023-05-14T01:33:07.234Z,67.24
2023-05-14T01:35:37.831Z,67.45
2023-05-14T01:38:10.458Z,67.59
2023-05-14T01:40:39.622Z,67.71
2023-05-14T01:43:10.249Z,68.02
2023-05-14T01:45:40.870Z,68.08
2023-05-14T01:48:11.322Z,68.16
2023-05-14T01:50:42.389Z,68.41
2023-05-14T01:53:12.597Z,68.52
2023-05-14T01:55:43.042Z,68.73
2023-05-14T01:58:13.170Z,68.79
2023-05-14T02:00:43.550Z,68.96
2023-05-14T02:03:14.028Z,69.11
2023-05-14T02:05:44.326Z,69.07
2023-05-14T02:08:14.463Z,69.25
2023-05-14T02:10:44.985Z,69.31
2023-05-14T02:13:15.458Z,69.39
2023-05-14T02:15:45.772Z,69.41
2023-05-14T02:18:16.061Z,69.41
2023-05-14T02:20:46.419Z,69.76
2023-05-14T02:23:16.631Z,69.62
2023-05-14T02:25:48.872Z,69.68
2023-05-14T02:28:19.086Z,69.59
2023-05-14T02:30:49.447Z,69.78
2023-05-14T02:33:19.941Z,69.88
2023-05-14T02:35:50.465Z,69.94
2023-05-14T02:38:22.332Z,69.87
2023-05-14T02:40:53.062Z,69.92
2023-05-14T02:43:23.655Z,69.91
2023-05-14T02:45:54.001Z,69.85
2023-05-14T02:48:24.899Z,69.74
2023-05-14T02:50:55.240Z,69.91
2023-05-14T02:53:25.442Z,69.82
2023-05-14T02:55:55.967Z,69.91
2023-05-14T02:58:28.147Z,70.01
2023-05-14T03:00:59.075Z,70.06
2023-05-14T03:03:31.553Z,70.00
2023-05-14T03:06:02.678Z,70.14
2023-05-14T03:08:32.788Z,70.31
2023-05-14T03:11:02.929Z,70.39
2023-05-14T03:13:33.146Z,70.34
2023-05-14T03:16:03.266Z,70.37
2023-05-14T03:18:34.625Z,70.46
2023-05-14T03:21:04.873Z,70.45
2023-05-14T03:23:35.529Z,70.41
2023-05-14T03:26:06.331Z,70.34
2023-05-14T03:28:36.714Z,70.36
2023-05-14T03:31:07.015Z,70.46
2023-05-14T03:33:37.395Z,70.41
2023-05-14T03:36:08.706Z,70.52
2023-05-14T03:38:38.881Z,70.42
2023-05-14T03:41:09.334Z,70.34
2023-05-14T03:43:39.813Z,70.33
2023-05-14T03:46:09.988Z,70.51
2023-05-14T03:48:41.480Z,70.57
2023-05-14T03:51:11.683Z,70.66
2023-05-14T03:53:42.277Z,70.52
2023-05-14T03:56:12.526Z,70.63
2023-05-14T03:58:42.713Z,70.45
2023-05-14T04:01:13.296Z,70.65
2023-05-14T04:03:43.778Z,70.69
2023-05-14T04:06:14.512Z,70.84
2023-05-14T04:08:45.483Z,70.73
2023-05-14T04:11:16.104Z,70.57
2023-05-14T04:13:46.526Z,70.34
2023-05-14T04:16:18.636Z,70.38
2023-05-14T04:18:49.002Z,70.13
2023-05-14T04:21:19.318Z,69.94
2023-05-14T04:23:51.609Z,69.52
2023-05-14T04:26:22.305Z,69.32
2023-05-14T04:28:52.750Z,69.07
2023-05-14T04:31:22.966Z,68.47
2023-05-14T04:33:53.433Z,68.20
2023-05-14T04:36:23.990Z,67.85
2023-05-14T04:38:54.259Z,67.31
2023-05-14T04:41:24.467Z,66.16
2023-05-14T04:43:57.841Z,65.09
2023-05-14T04:46:28.132Z,63.78
2023-05-14T04:48:58.418Z,63.12
2023-05-14T04:51:28.825Z,61.67
2023-05-14T04:53:59.092Z,61.89
2023-05-14T04:56:37.746Z,61.70
2023-05-14T04:59:07.942Z,61.70
2023-05-14T05:01:38.742Z,62.20
2023-05-14T05:04:09.037Z,62.39
2023-05-14T05:06:39.243Z,62.72
2023-05-14T05:09:09.895Z,62.94
2023-05-14T05:11:40.164Z,63.24
2023-05-14T05:14:10.604Z,63.50
2023-05-14T05:16:40.797Z,63.77
2023-05-14T05:19:11.501Z,64.18
2023-05-14T05:21:41.780Z,64.17
2023-05-14T05:24:13.370Z,64.49
2023-05-14T05:26:44.047Z,64.54
2023-05-14T05:29:14.336Z,64.41
2023-05-14T05:31:44.779Z,64.59
2023-05-14T05:34:15.611Z,64.54
2023-05-14T05:36:45.746Z,64.43
2023-05-14T05:39:16.056Z,64.36
2023-05-14T05:41:46.201Z,64.41
2023-05-14T05:44:16.398Z,64.59
2023-05-14T05:46:46.746Z,64.36
2023-05-14T05:49:17.668Z,63.37
2023-05-14T05:51:47.901Z,61.94
2023-05-14T05:54:18.182Z,61.31
2023-05-14T05:56:48.440Z,60.86
2023-05-14T05:59:18.591Z,61.03
2023-05-14T06:01:48.825Z,59.48
2023-05-14T06:04:19.259Z,58.51
2023-05-14T06:06:49.612Z,57.09
2023-05-14T06:09:21.209Z,56.81
2023-05-14T06:11:51.408Z,55.81
2023-05-14T06:14:21.608Z,55.65
2023-05-14T06:16:51.898Z,55.36
2023-05-14T06:19:23.131Z,54.37
2023-05-14T06:21:53.669Z,53.48
2023-05-14T06:24:23.972Z,51.58
2023-05-14T06:26:54.781Z,52.14
2023-05-14T06:29:25.915Z,52.29
2023-05-14T06:31:56.069Z,51.64
2023-05-14T06:34:26.497Z,51.86
2023-05-14T06:36:57.252Z,52.41
2023-05-14T06:39:28.121Z,52.64
2023-05-14T06:41:58.305Z,52.54
2023-05-14T06:44:29.322Z,52.64
2023-05-14T06:46:59.520Z,53.22
2023-05-14T06:49:29.899Z,53.36
2023-05-14T06:52:00.145Z,53.74
2023-05-14T06:54:31.205Z,53.55
2023-05-14T06:57:01.514Z,53.49
2023-05-14T06:59:32.426Z,53.31
2023-05-14T07:02:03.114Z,53.40
2023-05-14T07:04:33.336Z,53.39
2023-05-14T07:07:03.590Z,53.20
2023-05-14T07:09:33.978Z,53.00
2023-05-14T07:12:08.932Z,52.98
2023-05-14T07:14:39.339Z,52.89
2023-05-14T07:17:09.622Z,52.86
2023-05-14T07:19:39.871Z,52.31
2023-05-14T07:22:10.936Z,52.09
2023-05-14T07:24:41.165Z,51.58
2023-05-14T07:27:12.485Z,50.96
2023-05-14T07:29:42.690Z,50.11
2023-05-14T07:32:15.301Z,49.26
2023-05-14T07:34:47.250Z,49.58
2023-05-14T07:37:18.192Z,48.85
2023-05-14T07:39:48.534Z,48.93
2023-05-14T07:42:31.809Z,47.97
2023-05-14T07:45:07.771Z,47.28
2023-05-14T07:47:38.332Z,47.46
2023-05-14T07:50:11.093Z,47.04
2023-05-14T07:52:41.409Z,46.57
2023-05-14T07:55:13.172Z,47.28
2023-05-14T07:57:43.564Z,47.33
2023-05-14T08:00:16.684Z,46.66
2023-05-14T08:02:49.113Z,46.45
2023-05-14T08:05:18.100Z,46.04
2023-05-14T08:07:48.340Z,45.32
2023-05-14T08:10:18.697Z,44.07
2023-05-14T08:13:04.712Z,43.58
2023-05-14T08:15:49.129Z,44.22
2023-05-14T08:18:19.313Z,42.91
2023-05-14T08:20:49.534Z,42.39
2023-05-14T08:23:19.827Z,42.39
2023-05-14T08:25:50.969Z,42.49
2023-05-14T08:28:24.048Z,42.66
2023-05-14T08:30:52.963Z,42.76
2023-05-14T08:33:23.329Z,41.75
2023-05-14T08:35:54.931Z,41.44
2023-05-14T08:38:25.182Z,41.66
2023-05-14T08:40:58.707Z,41.82
2023-05-14T08:43:32.022Z,41.30
2023-05-14T08:46:03.399Z,41.41
2023-05-14T08:48:35.263Z,41.66
2023-05-14T08:51:06.172Z,42.27
2023-05-14T08:53:38.757Z,41.99
2023-05-14T08:56:10.078Z,42.15
2023-05-14T08:58:41.048Z,40.63
2023-05-14T09:01:11.962Z,41.11
2023-05-14T09:03:44.272Z,40.76
2023-05-14T09:06:15.629Z,40.94
2023-05-14T09:08:46.495Z,40.89
2023-05-14T09:11:16.988Z,40.13
2023-05-14T09:13:47.363Z,40.13
2023-05-14T09:16:18.146Z,40.38
2023-05-14T09:18:48.552Z,40.52
2023-05-14T09:21:20.441Z,39.36
2023-05-14T09:23:56.197Z,39.54
2023-05-14T09:26:27.956Z,40.30
2023-05-14T09:29:00.570Z,41.03
2023-05-14T09:31:31.922Z,40.83
2023-05-14T09:34:02.499Z,41.61
2023-05-14T09:36:32.949Z,41.25
2023-05-14T09:39:05.991Z,40.48
2023-05-14T09:41:37.389Z,40.45
2023-05-14T09:44:07.716Z,40.18
2023-05-14T09:46:37.891Z,39.59
2023-05-14T09:49:08.150Z,40.10
2023-05-14T09:51:39.384Z,40.55
2023-05-14T09:54:10.060Z,40.98
2023-05-14T09:56:40.853Z,40.15
2023-05-14T09:59:11.391Z,38.77
2023-05-14T10:01:43.590Z,38.94
2023-05-14T10:04:14.495Z,39.04
2023-05-14T10:06:46.359Z,39.08
2023-05-14T10:09:18.404Z,39.59
2023-05-14T10:11:52.720Z,37.94
2023-05-14T10:14:26.288Z,38.43
2023-05-14T10:16:58.579Z,38.96
2023-05-14T10:19:28.208Z,39.40
2023-05-14T10:22:04.669Z,40.44
2023-05-14T10:24:35.633Z,41.07
2023-05-14T10:27:06.846Z,41.66
2023-05-14T10:29:38.871Z,42.09
2023-05-14T10:32:13.006Z,41.82
2023-05-14T10:34:44.647Z,41.73
2023-05-14T10:37:16.586Z,40.89
2023-05-14T10:39:48.519Z,40.22
2023-05-14T10:42:20.834Z,39.79
2023-05-14T10:44:53.402Z,40.27
2023-05-14T10:47:24.002Z,41.08
2023-05-14T10:49:57.388Z,41.94
2023-05-14T10:52:28.347Z,42.46
2023-05-14T10:55:02.918Z,42.90
2023-05-14T10:57:35.904Z,43.93
2023-05-14T11:00:08.951Z,43.75
2023-05-14T11:02:40.682Z,43.74
2023-05-14T11:05:13.955Z,43.63
2023-05-14T11:07:45.282Z,43.65
2023-05-14T11:10:16.914Z,42.72
2023-05-14T11:12:48.907Z,42.64
2023-05-14T11:15:20.883Z,42.63
2023-05-14T11:17:52.080Z,41.60
2023-05-14T11:20:23.825Z,39.88
2023-05-14T11:22:55.397Z,38.87
2023-05-14T11:25:25.886Z,37.32
2023-05-14T11:27:58.879Z,36.70
2023-05-14T11:30:29.886Z,36.50
2023-05-14T11:33:01.867Z,36.43
2023-05-14T11:35:32.896Z,36.07
2023-05-14T11:38:03.057Z,33.53
2023-05-14T11:40:33.267Z,34.10
2023-05-14T11:43:03.499Z,34.65
2023-05-14T11:45:33.791Z,34.99
2023-05-14T11:48:04.487Z,36.29
2023-05-14T11:50:37.986Z,37.39
2023-05-14T11:53:08.272Z,38.23
2023-05-14T11:55:38.634Z,38.88
2023-05-14T11:58:08.771Z,39.26
2023-05-14T12:00:39.994Z,39.76
2023-05-14T12:03:12.174Z,40.65
2023-05-14T12:05:42.548Z,41.39
2023-05-14T12:08:28.524Z,41.78
2023-05-14T12:11:01.049Z,42.72
2023-05-14T12:13:32.399Z,42.85
2023-05-14T12:16:05.334Z,42.95
2023-05-14T12:18:36.112Z,42.26
2023-05-14T12:21:08.315Z,39.70
2023-05-14T12:23:41.163Z,37.94
2023-05-14T12:26:11.798Z,36.11
2023-05-14T12:28:43.877Z,34.51
2023-05-14T12:31:12.868Z,32.70
2023-05-14T12:33:43.288Z,31.85
2023-05-14T12:38:53.086Z,34.05
2023-05-14T12:41:23.337Z,35.23
2023-05-14T12:43:53.660Z,36.26
2023-05-14T12:46:24.167Z,36.15
2023-05-14T12:48:54.623Z,35.52
2023-05-14T12:51:24.806Z,34.82
2023-05-14T12:53:55.011Z,32.93
2023-05-14T12:56:28.326Z,30.99
2023-05-14T12:58:58.930Z,31.33
2023-05-14T13:01:29.641Z,30.69
2023-05-14T13:04:00.085Z,30.21
2023-05-14T13:06:31.656Z,28.83
2023-05-14T13:09:02.477Z,27.71
2023-05-14T13:11:33.072Z,26.64
2023-05-14T13:14:04.186Z,26.42
2023-05-14T13:16:34.657Z,26.48
2023-05-14T13:19:05.097Z,26.27
2023-05-14T13:21:35.380Z,26.47
2023-05-14T13:24:06.291Z,26.53
2023-05-14T13:26:46.981Z,26.22
2023-05-14T13:29:19.606Z,24.73
2023-05-14T13:31:49.989Z,25.04
2023-05-14T13:34:20.303Z,25.61
2023-05-14T13:36:51.385Z,25.69
2023-05-14T13:39:22.816Z,25.94
2023-05-14T13:41:52.992Z,26.38
2023-05-14T13:44:23.182Z,26.21
2023-05-14T13:46:53.522Z,26.24
2023-05-14T13:49:23.845Z,25.95
2023-05-14T13:51:54.096Z,24.68
2023-05-14T13:54:25.531Z,24.33
2023-05-14T13:56:56.676Z,24.88
2023-05-14T13:59:27.803Z,24.32
2023-05-14T14:01:58.400Z,24.13
2023-05-14T14:04:29.151Z,23.78
2023-05-14T14:06:59.865Z,23.75
2023-05-14T14:09:35.136Z,24.00
2023-05-14T14:12:06.983Z,23.02
2023-05-14T14:14:37.254Z,22.91
2023-05-14T14:17:08.961Z,23.06
2023-05-14T14:19:39.608Z,22.75
2023-05-14T14:22:09.895Z,22.27
2023-05-14T14:24:40.235Z,22.30
2023-05-14T14:27:10.509Z,22.71
2023-05-14T14:29:40.762Z,22.27
2023-05-14T14:32:11.961Z,21.74
2023-05-14T14:34:42.343Z,21.63
2023-05-14T14:37:12.617Z,23.00
2023-05-14T14:39:42.906Z,23.78
2023-05-14T14:42:13.041Z,23.27
2023-05-14T14:44:43.245Z,23.75
2023-05-14T14:47:13.875Z,23.73
2023-05-14T14:49:44.107Z,23.53
2023-05-14T14:52:14.872Z,22.99
2023-05-14T14:54:48.302Z,22.56
2023-05-14T14:57:33.580Z,22.40
2023-05-14T15:00:06.042Z,21.99
2023-05-14T15:02:38.373Z,21.78
2023-05-14T15:05:10.549Z,22.13
2023-05-14T15:07:40.889Z,21.71
2023-05-14T15:10:12.169Z,21.14
2023-05-14T15:12:42.619Z,22.21
2023-05-14T15:15:13.451Z,21.82
2023-05-14T15:17:43.738Z,22.05
2023-05-14T15:20:15.214Z,23.36
2023-05-14T15:22:45.987Z,25.36
2023-05-14T15:25:16.377Z,26.81
2023-05-14T15:27:46.805Z,28.02
2023-05-14T15:30:18.321Z,29.50
2023-05-14T15:32:48.677Z,30.55
2023-05-14T15:35:19.006Z,31.89
2023-05-14T15:37:49.240Z,33.18
2023-05-14T15:40:21.533Z,35.14
2023-05-14T15:42:50.470Z,36.45
2023-05-14T15:45:21.089Z,37.23
2023-05-14T15:47:51.296Z,38.11
2023-05-14T15:50:22.563Z,39.05
2023-05-14T15:52:52.940Z,38.73
2023-05-14T15:55:23.332Z,38.67
2023-05-14T15:57:53.830Z,39.24
2023-05-14T16:00:24.816Z,39.73
2023-05-14T16:02:55.621Z,40.31
2023-05-14T16:05:25.991Z,40.53
2023-05-14T16:07:56.228Z,40.89
2023-05-14T16:10:26.914Z,40.43
2023-05-14T16:12:57.375Z,40.35
2023-05-14T16:15:27.570Z,41.21
2023-05-14T16:17:57.881Z,41.44
2023-05-14T16:20:28.509Z,41.78
2023-05-14T16:22:58.714Z,42.32
2023-05-14T16:25:30.034Z,42.57
2023-05-14T16:28:00.211Z,42.90
2023-05-14T16:30:30.509Z,43.25
2023-05-14T16:33:00.797Z,43.56
2023-05-14T16:35:31.293Z,43.81
2023-05-14T16:38:01.739Z,44.22
2023-05-14T16:40:32.036Z,44.46
2023-05-14T16:43:02.233Z,44.71
2023-05-14T16:45:34.749Z,44.78
2023-05-14T16:48:06.079Z,45.09
2023-05-14T16:50:36.481Z,45.13
2023-05-14T16:53:06.725Z,45.31
2023-05-14T16:55:36.975Z,45.64
2023-05-14T16:58:07.322Z,45.67
2023-05-14T17:00:37.572Z,45.55
2023-05-14T17:03:10.532Z,45.83
2023-05-14T17:05:41.014Z,45.90
2023-05-14T17:08:11.286Z,46.20
2023-05-14T17:10:41.767Z,46.01
2023-05-14T17:13:11.988Z,46.16
2023-05-14T17:15:42.492Z,46.67
2023-05-14T17:18:13.123Z,46.62
2023-05-14T17:20:43.410Z,46.54
2023-05-14T17:23:13.555Z,46.78
2023-05-14T17:25:43.694Z,47.00
2023-05-14T17:28:14.351Z,46.94
2023-05-14T17:30:44.798Z,47.27
2023-05-14T17:33:15.236Z,47.12
2023-05-14T17:35:45.713Z,46.81
2023-05-14T17:38:16.602Z,46.71
2023-05-14T17:40:46.826Z,46.93
2023-05-14T17:43:17.366Z,47.01
2023-05-14T17:48:23.872Z,47.42
2023-05-14T17:50:54.242Z,47.71
2023-05-14T17:53:24.619Z,48.05
2023-05-14T17:55:54.954Z,48.56
2023-05-14T17:58:25.245Z,48.52
2023-05-14T18:00:55.605Z,48.82
2023-05-14T18:03:25.983Z,49.12
2023-05-14T18:05:56.349Z,49.09
2023-05-14T18:08:26.631Z,48.87
2023-05-14T18:10:58.474Z,48.83
2023-05-14T18:13:29.027Z,48.45
2023-05-14T18:16:00.643Z,47.90
2023-05-14T18:18:31.457Z,47.50
2023-05-14T18:21:01.804Z,47.68
2023-05-14T18:23:32.183Z,47.91
2023-05-14T18:26:02.858Z,48.37
2023-05-14T18:28:33.115Z,48.71
2023-05-14T18:31:04.233Z,48.69
2023-05-14T18:33:34.981Z,48.74
2023-05-14T18:36:05.887Z,48.79
2023-05-14T18:38:36.043Z,48.61
2023-05-14T18:41:06.216Z,48.73
2023-05-14T18:43:36.424Z,49.02
2023-05-14T18:46:06.643Z,49.28
2023-05-14T18:48:39.247Z,49.61
2023-05-14T18:51:11.339Z,49.68
2023-05-14T18:53:41.505Z,49.68
2023-05-14T18:56:11.632Z,49.69
2023-05-14T18:58:41.956Z,49.75
2023-05-14T19:01:12.203Z,49.62
2023-05-14T19:03:42.933Z,49.63
2023-05-14T19:06:13.165Z,49.46
2023-05-14T19:08:44.251Z,49.52
2023-05-14T19:11:18.210Z,49.44
2023-05-14T19:13:49.481Z,49.38
2023-05-14T19:16:29.232Z,49.39
2023-05-14T19:19:09.078Z,48.89
2023-05-14T19:21:39.439Z,49.05
2023-05-14T19:24:09.800Z,48.94
2023-05-14T19:26:40.143Z,49.05
2023-05-14T19:29:10.427Z,48.91
2023-05-14T19:31:41.022Z,48.78
2023-05-14T19:34:11.332Z,48.83
2023-05-14T19:36:41.750Z,49.14
2023-05-14T19:39:12.110Z,49.34
2023-05-14T19:41:42.368Z,49.51
2023-05-14T19:44:12.840Z,49.74
2023-05-14T19:46:45.640Z,49.91
2023-05-14T19:49:16.528Z,50.13
2023-05-14T19:51:46.742Z,50.35
2023-05-14T19:54:17.103Z,50.50
2023-05-14T19:56:47.613Z,50.86
2023-05-14T19:59:17.870Z,50.73
2023-05-14T20:01:48.896Z,50.95
2023-05-14T20:04:19.751Z,51.13
2023-05-14T20:06:49.909Z,51.27
2023-05-14T20:09:20.483Z,51.42
2023-05-14T20:11:50.688Z,51.48
2023-05-14T20:14:20.997Z,51.64
2023-05-14T20:16:51.219Z,51.82
2023-05-14T20:19:22.198Z,51.94
2023-05-14T20:21:52.599Z,52.07
2023-05-14T20:24:22.819Z,52.08
2023-05-14T20:26:53.129Z,52.28
2023-05-14T20:29:23.369Z,52.51
2023-05-14T20:31:53.583Z,52.49
2023-05-14T20:34:24.136Z,52.79
2023-05-14T20:36:54.836Z,53.07
2023-05-14T20:39:25.334Z,53.11
2023-05-14T20:41:55.920Z,53.29
2023-05-14T20:44:26.133Z,53.44
2023-05-14T20:46:56.404Z,53.66
2023-05-14T20:49:26.715Z,53.69
2023-05-14T20:51:57.407Z,53.71
2023-05-14T20:54:27.626Z,54.10
2023-05-14T20:56:57.862Z,54.32
2023-05-14T20:59:28.096Z,54.35
2023-05-14T21:01:58.374Z,54.59
2023-05-14T21:04:28.883Z,54.80
2023-05-14T21:06:59.164Z,54.78
2023-05-14T21:09:29.306Z,54.96
2023-05-14T21:12:00.028Z,55.22
2023-05-14T21:14:30.804Z,55.49
2023-05-14T21:17:01.154Z,55.57
2023-05-14T21:19:31.301Z,55.56
2023-05-14T21:22:01.523Z,55.61
2023-05-14T21:24:31.822Z,55.97
2023-05-14T21:27:02.167Z,56.05
2023-05-14T21:29:32.994Z,55.99
2023-05-14T21:32:03.268Z,56.00
2023-05-14T21:34:34.344Z,56.32
2023-05-14T21:37:04.547Z,56.49
2023-05-14T21:39:34.728Z,56.34
2023-05-14T21:42:05.153Z,56.71
2023-05-14T21:44:35.534Z,56.66
2023-05-14T21:47:06.445Z,56.84
2023-05-14T21:49:36.709Z,57.09
2023-05-14T21:52:07.903Z,57.33
2023-05-14T21:54:41.071Z,57.50
2023-05-14T21:57:11.286Z,57.77
2023-05-14T21:59:41.896Z,57.98
2023-05-14T22:02:12.901Z,58.18
2023-05-14T22:04:43.181Z,58.30
2023-05-14T22:07:13.476Z,58.30
2023-05-14T22:09:43.663Z,58.71
2023-05-14T22:12:13.803Z,59.03
2023-05-14T22:14:44.039Z,59.40
2023-05-14T22:17:14.312Z,59.77
2023-05-14T22:19:44.473Z,59.97
2023-05-14T22:22:14.643Z,60.06
2023-05-14T22:24:44.841Z,60.21
2023-05-14T22:27:15.006Z,60.31
2023-05-14T22:29:45.437Z,60.36
2023-05-14T22:32:16.199Z,60.15
2023-05-14T22:34:46.397Z,60.16
2023-05-14T22:37:16.783Z,60.15
2023-05-14T22:39:47.174Z,60.04
2023-05-14T22:42:17.386Z,59.99
2023-05-14T22:44:47.524Z,59.90
2023-05-14T22:47:17.726Z,59.90
2023-05-14T22:49:47.914Z,59.91
2023-05-14T22:52:19.474Z,59.76
2023-05-14T22:54:50.934Z,59.76
2023-05-14T22:57:22.077Z,59.78
2023-05-14T22:59:52.904Z,59.59
2023-05-14T23:02:23.139Z,59.62
2023-05-14T23:04:53.466Z,59.81
2023-05-14T23:07:23.845Z,59.64
2023-05-14T23:09:54.025Z,59.63
2023-05-14T23:12:24.363Z,59.45
2023-05-14T23:14:54.527Z,59.41
2023-05-14T23:17:24.758Z,59.24
2023-05-14T23:19:55.376Z,59.24
2023-05-14T23:22:25.660Z,59.02
2023-05-14T23:24:55.842Z,59.17
2023-05-14T23:27:26.135Z,59.09
2023-05-14T23:29:56.358Z,58.99
2023-05-14T23:32:26.702Z,59.01
2023-05-14T23:34:57.251Z,59.24
2023-05-14T23:37:27.635Z,59.30
2023-05-14T23:39:57.759Z,59.53
2023-05-14T23:42:27.940Z,59.59
2023-05-14T23:44:58.139Z,59.67
2023-05-14T23:47:28.430Z,59.80
2023-05-14T23:49:58.657Z,59.85
2023-05-14T23:52:28.785Z,59.79
2023-05-14T23:54:58.928Z,59.71
2023-05-14T23:57:29.182Z,59.76
2023-05-14T23:59:59.333Z,59.75
